Time;durP1;ratioP1;P1;durP2;ratioP2;P2;SDS_P1;SDS_P2;PMS_P1;PMS_P2;Temp;Humidity;BMP_temperature;BMP_pressure;BME280_temperature;BME280_humidity;BME280_pressure;Samples;Min_cycle;Max_cycle;Signal;HPM_P1;HPM_P2
2024/01/25 00:01:56;;;;;;;16.55;7.25;;;;;;;2.75;100.00;62285.16;4967220;29;20197;-79
2024/01/25 00:04:23;;;;;;;14.02;7.80;;;;;;;2.65;100.00;62267.34;4974152;28;20229;-80
2024/01/25 00:06:50;;;;;;;11.40;6.80;;;;;;;2.60;100.00;62261.69;4971480;29;20197;-81
2024/01/25 00:09:17;;;;;;;18.48;8.05;;;;;;;2.67;100.00;62271.38;4972786;28;20208;-79
2024/01/25 00:11:45;;;;;;;15.00;8.88;;;;;;;2.68;100.00;62275.44;4982486;28;20219;-80
2024/01/25 00:14:12;;;;;;;10.15;7.65;;;;;;;2.80;100.00;62284.75;4980064;28;20205;-81
2024/01/25 00:16:41;;;;;;;13.35;8.20;;;;;;;2.84;100.00;62291.38;4972095;29;20201;-81
2024/01/25 00:19:08;;;;;;;12.38;8.25;;;;;;;2.77;100.00;62282.19;4971880;28;20204;-79
2024/01/25 00:21:36;;;;;;;14.48;7.85;;;;;;;2.93;100.00;62296.13;4971512;29;20217;-82
2024/01/25 00:24:03;;;;;;;10.82;7.82;;;;;;;3.01;100.00;62306.84;4962959;28;20204;-80
2024/01/25 00:26:30;;;;;;;11.27;7.90;;;;;;;2.85;100.00;62282.34;4973203;28;20216;-80
2024/01/25 00:28:58;;;;;;;8.73;6.43;;;;;;;2.97;100.00;62299.72;4976112;29;20212;-81
2024/01/25 00:31:26;;;;;;;10.55;6.47;;;;;;;2.81;100.00;62291.31;4964079;29;20229;-83
2024/01/25 00:33:53;;;;;;;11.68;6.18;;;;;;;2.73;100.00;62278.06;4974776;29;20256;-81
2024/01/25 00:36:20;;;;;;;8.65;5.35;;;;;;;2.82;100.00;62286.78;4973163;28;20228;-82
2024/01/25 00:38:48;;;;;;;7.20;5.40;;;;;;;2.82;100.00;62289.81;4972468;29;20216;-81
2024/01/25 00:41:17;;;;;;;6.40;5.80;;;;;;;2.87;100.00;62291.94;4973957;28;20231;-82
2024/01/25 00:43:44;;;;;;;7.97;6.03;;;;;;;2.92;100.00;62297.59;4974924;29;20208;-80
2024/01/25 00:46:13;;;;;;;9.23;6.07;;;;;;;2.96;100.00;62301.69;4976582;28;20260;-81
2024/01/25 00:48:42;;;;;;;13.10;6.05;;;;;;;2.98;100.00;62306.28;4972603;29;20264;-82
2024/01/25 00:51:09;;;;;;;13.50;6.75;;;;;;;3.20;100.00;62321.34;4972712;28;20217;-81
2024/01/25 00:53:37;;;;;;;10.85;6.25;;;;;;;3.20;100.00;62328.38;4973110;29;20197;-82
2024/01/25 00:56:05;;;;;;;10.38;6.20;;;;;;;3.20;100.00;62328.88;4961246;29;20228;-80
2024/01/25 00:58:33;;;;;;;6.55;5.60;;;;;;;3.23;100.00;62331.44;4957642;29;20237;-80
2024/01/25 01:01:00;;;;;;;7.95;5.90;;;;;;;3.25;100.00;62331.50;4955331;29;20261;-81
2024/01/25 01:03:29;;;;;;;7.38;5.57;;;;;;;3.29;100.00;62333.09;4979605;29;20207;-80
2024/01/25 01:05:57;;;;;;;9.25;6.13;;;;;;;3.36;100.00;62347.34;4973647;29;20232;-80
2024/01/25 01:08:26;;;;;;;8.57;6.07;;;;;;;3.31;100.00;62345.22;4971283;28;20405;-79
2024/01/25 01:10:53;;;;;;;10.65;6.97;;;;;;;3.35;100.00;62344.31;4969313;28;20245;-81
2024/01/25 01:13:19;;;;;;;14.60;8.23;;;;;;;3.31;100.00;62340.19;4973850;28;20264;-81
2024/01/25 01:15:47;;;;;;;15.50;8.20;;;;;;;3.39;100.00;62345.38;4971398;28;20526;-82
2024/01/25 01:18:14;;;;;;;10.10;7.13;;;;;;;3.52;100.00;62354.22;4961628;29;20467;-80
2024/01/25 01:20:42;;;;;;;11.90;7.18;;;;;;;3.59;100.00;62367.97;4978970;28;20220;-80
2024/01/25 01:23:09;;;;;;;11.55;7.85;;;;;;;3.59;100.00;62365.44;4972140;29;20215;-80
2024/01/25 01:25:36;;;;;;;9.40;7.03;;;;;;;3.61;100.00;62364.97;4961553;29;20268;-82
2024/01/25 01:28:04;;;;;;;9.77;6.60;;;;;;;3.64;98.51;62371.09;4971714;29;20213;-79
2024/01/25 01:30:30;;;;;;;7.07;6.35;;;;;;;3.63;98.61;62370.06;4973738;28;20232;-79
2024/01/25 01:32:58;;;;;;;8.73;5.80;;;;;;;3.66;100.00;62370.63;4970916;28;20220;-81
2024/01/25 01:35:25;;;;;;;3.05;2.75;;;;;;;4.13;100.00;62418.97;4970126;28;20386;-83
2024/01/25 01:37:54;;;;;;;4.32;2.45;;;;;;;4.61;98.73;62473.41;4975474;28;20235;-82
2024/01/25 01:40:21;;;;;;;3.35;3.05;;;;;;;4.95;96.55;62509.91;4976526;28;20232;-84
2024/01/25 01:42:48;;;;;;;3.40;1.95;;;;;;;5.14;96.02;62527.47;4968177;28;20208;-81
2024/01/25 01:45:17;;;;;;;2.00;1.85;;;;;;;5.44;95.57;62558.34;4963516;29;20216;-81
2024/01/25 01:47:45;;;;;;;2.55;2.35;;;;;;;5.66;94.09;62578.50;4973065;29;20193;-82
2024/01/25 01:50:12;;;;;;;1.00;1.00;;;;;;;5.98;95.03;62613.00;4972783;28;20432;-81
2024/01/25 01:52:39;;;;;;;1.33;1.10;;;;;;;6.26;97.03;62636.78;4970493;29;20204;-81
2024/01/25 01:55:09;;;;;;;7.72;4.80;;;;;;;6.30;85.97;62643.47;4970830;28;20224;-81
2024/01/25 01:57:36;;;;;;;4.90;4.40;;;;;;;6.17;85.47;62632.56;4975505;29;20232;-80
2024/01/25 02:00:04;;;;;;;7.45;5.13;;;;;;;6.00;83.62;62612.53;4975246;28;20232;-81
2024/01/25 02:02:31;;;;;;;6.40;4.18;;;;;;;5.85;87.00;62598.09;4974018;29;20215;-82
2024/01/25 02:04:58;;;;;;;3.00;1.35;;;;;;;6.03;94.79;62615.59;4970340;29;20232;-81
2024/01/25 02:07:25;;;;;;;0.50;0.50;;;;;;;6.43;97.15;62659.38;4972118;29;20252;-81
2024/01/25 02:09:52;;;;;;;0.40;0.40;;;;;;;6.63;94.21;62685.56;4970519;28;20224;-81
2024/01/25 02:12:21;;;;;;;1.55;0.35;;;;;;;7.08;92.74;62726.41;4980784;28;20207;-82
2024/01/25 02:14:48;;;;;;;0.32;0.32;;;;;;;7.25;90.67;62743.94;4976627;28;20231;-81
2024/01/25 02:17:15;;;;;;;2.00;0.55;;;;;;;7.47;90.44;62766.66;4968335;29;20205;-81
2024/01/25 02:19:42;;;;;;;1.85;0.40;;;;;;;7.51;90.31;62770.78;4966336;28;20525;-80
2024/01/25 02:22:09;;;;;;;0.45;0.45;;;;;;;7.53;89.68;62774.88;4970763;29;20213;-83
2024/01/25 02:24:37;;;;;;;0.40;0.40;;;;;;;7.59;89.70;62773.47;4970899;29;20234;-82
2024/01/25 02:27:05;;;;;;;0.50;0.50;;;;;;;7.58;90.26;62774.97;4963461;29;20264;-81
2024/01/25 02:29:31;;;;;;;0.65;0.65;;;;;;;7.54;91.52;62773.88;4972714;28;20246;-84
2024/01/25 02:31:58;;;;;;;0.25;0.25;;;;;;;7.63;91.52;62782.66;4969855;28;20235;-82
2024/01/25 02:34:25;;;;;;;0.57;0.57;;;;;;;7.63;92.26;62780.13;4973174;29;20248;-81
2024/01/25 02:36:52;;;;;;;0.40;0.40;;;;;;;7.69;93.47;62788.84;4971707;29;20493;-81
2024/01/25 02:39:19;;;;;;;0.20;0.20;;;;;;;7.79;93.42;62799.69;4972912;28;20247;-80
2024/01/25 02:41:48;;;;;;;0.60;0.30;;;;;;;7.85;93.28;62803.34;4957255;29;20255;-82
2024/01/25 02:44:15;;;;;;;0.57;0.30;;;;;;;7.89;92.80;62807.47;4970936;28;20246;-84
2024/01/25 02:46:44;;;;;;;0.43;0.43;;;;;;;7.83;92.60;62798.75;4971525;29;20271;-81
2024/01/25 02:49:11;;;;;;;0.10;0.10;;;;;;;7.94;91.42;62812.13;4976567;28;20212;-84
2024/01/25 02:51:38;;;;;;;0.20;0.20;;;;;;;7.98;90.76;62823.88;4974389;28;20205;-83
2024/01/25 02:54:06;;;;;;;0.30;0.20;;;;;;;7.93;91.94;62811.63;4958849;29;20440;-83
2024/01/25 02:56:34;;;;;;;0.10;0.10;;;;;;;7.90;90.93;62811.03;4975421;28;20204;-83
2024/01/25 02:59:03;;;;;;;0.47;0.47;;;;;;;7.74;89.11;62791.47;4977760;28;20240;-84
2024/01/25 03:01:41;;;;;;;0.57;0.35;;;;;;;7.95;88.24;62816.22;4958494;29;20244;-83
2024/01/25 03:04:08;;;;;;;0.20;0.20;;;;;;;7.77;88.75;62799.63;4969664;28;20220;-81
2024/01/25 03:06:35;;;;;;;1.73;0.50;;;;;;;7.41;90.79;62757.41;4970695;29;20213;-83
2024/01/25 03:09:04;;;;;;;0.85;0.55;;;;;;;7.36;92.06;62755.31;4958112;29;20213;-83
2024/01/25 03:11:31;;;;;;;0.45;0.45;;;;;;;7.62;92.40;62779.09;4964018;29;20205;-84
2024/01/25 03:14:00;;;;;;;0.47;0.35;;;;;;;7.71;91.83;62783.84;4970005;29;20263;-85
2024/01/25 03:16:29;;;;;;;0.30;0.30;;;;;;;7.79;92.94;62797.16;4967345;28;20211;-82
2024/01/25 03:18:56;;;;;;;0.10;0.10;;;;;;;7.76;93.50;62796.59;4971758;29;20542;-85
2024/01/25 03:21:23;;;;;;;0.98;0.30;;;;;;;7.76;93.62;62791.53;4970295;29;20217;-84
2024/01/25 03:23:50;;;;;;;0.30;0.30;;;;;;;7.45;94.40;62761.56;4975198;28;20219;-84
2024/01/25 03:26:17;;;;;;;0.30;0.30;;;;;;;7.47;94.84;62766.16;4972922;28;20224;-84
2024/01/25 03:28:44;;;;;;;0.40;0.40;;;;;;;7.52;95.01;62766.25;4973014;29;20228;-84
2024/01/25 03:31:11;;;;;;;0.52;0.20;;;;;;;7.46;95.22;62765.63;4965106;28;20232;-80
2024/01/25 03:33:40;;;;;;;0.38;0.38;;;;;;;7.45;95.53;62764.09;4980169;28;20234;-80
2024/01/25 03:36:07;;;;;;;0.50;0.50;;;;;;;7.29;95.95;62745.03;4962800;29;20225;-80
2024/01/25 03:38:34;;;;;;;1.13;0.65;;;;;;;7.25;96.09;62743.44;4977874;28;20239;-80
2024/01/25 03:41:01;;;;;;;0.40;0.40;;;;;;;7.18;96.23;62734.19;4976743;28;20319;-79
2024/01/25 03:43:28;;;;;;;0.45;0.35;;;;;;;7.27;96.20;62740.44;4962436;29;20201;-81
2024/01/25 03:45:55;;;;;;;0.47;0.47;;;;;;;7.34;94.86;62753.25;4966514;28;20232;-82
2024/01/25 03:48:21;;;;;;;0.40;0.40;;;;;;;7.44;93.55;62763.06;4974937;29;20204;-84
2024/01/25 03:50:51;;;;;;;0.35;0.35;;;;;;;7.48;92.91;62765.16;4973673;29;20588;-85
2024/01/25 03:53:18;;;;;;;0.10;0.10;;;;;;;7.47;91.77;62764.13;4977287;29;20204;-83
2024/01/25 03:55:45;;;;;;;0.40;0.40;;;;;;;7.50;91.33;62772.28;4971454;28;20221;-82
2024/01/25 03:58:12;;;;;;;2.70;0.70;;;;;;;7.50;90.80;62766.72;4958971;29;20444;-84
2024/01/25 04:00:39;;;;;;;0.40;0.32;;;;;;;7.58;89.39;62778.00;4975580;29;20221;-83
2024/01/25 04:03:06;;;;;;;0.32;0.32;;;;;;;7.60;88.75;62780.09;4976599;29;20521;-81
2024/01/25 04:05:33;;;;;;;0.28;0.28;;;;;;;7.71;90.28;62791.44;4967691;28;20221;-83
2024/01/25 04:08:01;;;;;;;0.93;0.30;;;;;;;7.66;90.79;62788.28;4967395;29;20802;-84
2024/01/25 04:10:28;;;;;;;0.43;0.40;;;;;;;7.69;89.57;62791.38;4966876;28;20248;-83
2024/01/25 04:12:55;;;;;;;0.30;0.30;;;;;;;7.65;89.26;62782.19;4978197;29;20211;-81
2024/01/25 04:15:22;;;;;;;0.40;0.40;;;;;;;7.73;88.25;62790.97;4976509;28;20236;-82
2024/01/25 04:17:51;;;;;;;0.68;0.45;;;;;;;7.61;89.94;62780.59;4971731;29;20232;-83
2024/01/25 04:20:18;;;;;;;1.20;0.75;;;;;;;7.59;91.25;62776.50;4970025;28;20250;-82
2024/01/25 04:22:45;;;;;;;2.42;1.20;;;;;;;7.60;90.08;62780.09;4974609;28;20201;-82
2024/01/25 04:25:14;;;;;;;1.45;0.50;;;;;;;7.58;88.63;62778.00;4967515;29;20221;-84
2024/01/25 04:27:41;;;;;;;0.52;0.40;;;;;;;7.56;87.61;62772.91;4971040;28;20223;-86
2024/01/25 04:30:10;;;;;;;0.47;0.43;;;;;;;7.54;86.60;62770.84;4966818;29;20225;-85
2024/01/25 04:32:37;;;;;;;0.52;0.43;;;;;;;7.50;85.52;62771.78;4972729;28;20220;-86
2024/01/25 04:35:04;;;;;;;0.77;0.60;;;;;;;7.46;83.89;62760.03;4974709;29;20221;-86
2024/01/25 04:37:31;;;;;;;0.50;0.50;;;;;;;7.54;83.60;62771.34;4956725;29;20236;-84
2024/01/25 04:39:58;;;;;;;0.60;0.60;;;;;;;7.48;81.82;62770.22;4972113;28;20236;-84
2024/01/25 04:42:27;;;;;;;0.65;0.65;;;;;;;7.43;81.98;62764.56;4974634;28;20201;-83
2024/01/25 04:44:54;;;;;;;0.57;0.45;;;;;;;7.33;81.83;62747.16;4973864;28;20288;-83
2024/01/25 04:47:21;;;;;;;3.20;0.60;;;;;;;7.27;81.87;62740.97;4975571;28;20223;-82
2024/01/25 04:49:49;;;;;;;0.80;0.73;;;;;;;7.23;81.87;62743.91;4976644;28;20284;-83
2024/01/25 04:52:16;;;;;;;2.70;1.02;;;;;;;7.04;80.74;62722.81;4975601;29;20204;-85
2024/01/25 04:54:43;;;;;;;0.75;0.75;;;;;;;7.14;81.23;62737.69;4973539;28;20397;-84
2024/01/25 04:57:10;;;;;;;0.65;0.63;;;;;;;7.04;81.53;62722.81;4972735;29;20229;-84
2024/01/25 04:59:38;;;;;;;0.30;0.30;;;;;;;6.99;81.31;62712.59;4973066;28;20232;-83
2024/01/25 05:02:06;;;;;;;3.55;0.82;;;;;;;7.03;80.47;62721.78;4974234;29;20224;-82
2024/01/25 05:04:34;;;;;;;0.77;0.47;;;;;;;7.02;80.10;62717.72;4971862;28;20221;-83
2024/01/25 05:07:01;;;;;;;3.97;0.70;;;;;;;6.93;77.25;62708.41;4975874;29;20197;-84
2024/01/25 05:09:31;;;;;;;1.95;0.85;;;;;;;7.05;77.36;62720.78;4976581;28;20239;-81
2024/01/25 05:12:01;;;;;;;3.55;0.73;;;;;;;7.03;76.39;62723.78;4976932;29;20221;-85
2024/01/25 05:14:28;;;;;;;2.10;0.63;;;;;;;7.00;74.60;62718.69;4969405;29;20264;-83
2024/01/25 05:16:58;;;;;;;2.70;0.90;;;;;;;7.02;74.75;62725.31;4965742;29;20228;-87
2024/01/25 05:19:27;;;;;;;1.70;0.77;;;;;;;6.88;75.21;62706.31;4976116;28;20265;-85
2024/01/25 05:21:54;;;;;;;0.80;0.70;;;;;;;6.79;74.55;62693.97;4964740;29;20249;-87
2024/01/25 05:24:22;;;;;;;0.63;0.63;;;;;;;6.92;75.03;62707.38;4978654;28;20236;-87
2024/01/25 05:26:49;;;;;;;1.27;0.65;;;;;;;6.94;75.21;62709.44;4963185;28;20202;-86
2024/01/25 05:29:17;;;;;;;0.85;0.77;;;;;;;6.92;74.65;62710.44;4971912;28;20221;-84
2024/01/25 05:31:44;;;;;;;0.70;0.68;;;;;;;6.86;74.83;62704.25;4974074;29;20211;-84
2024/01/25 05:34:13;;;;;;;2.78;1.25;;;;;;;6.93;75.93;62714.00;4958405;29;20233;-86
2024/01/25 05:36:42;;;;;;;1.75;0.77;;;;;;;6.72;76.41;62689.81;4968592;29;20220;-85
2024/01/25 05:39:09;;;;;;;1.60;1.50;;;;;;;6.75;76.11;62690.38;4958805;29;20256;-85
2024/01/25 05:41:36;;;;;;;2.70;1.27;;;;;;;6.74;75.25;62693.88;4970976;29;20211;-82
2024/01/25 05:44:04;;;;;;;1.20;0.90;;;;;;;6.84;74.63;62701.66;4975614;28;20272;-84
2024/01/25 05:46:34;;;;;;;1.73;1.17;;;;;;;6.87;74.57;62702.22;4974371;29;20259;-85
2024/01/25 05:49:01;;;;;;;4.97;1.25;;;;;;;6.87;74.58;62705.28;4965945;28;20244;-88
2024/01/25 05:51:32;;;;;;;5.35;1.08;;;;;;;6.84;75.90;62702.19;4973974;28;20232;-82
2024/01/25 05:54:00;;;;;;;2.25;1.25;;;;;;;6.83;76.60;62700.63;4974655;28;20203;-86
2024/01/25 05:56:27;;;;;;;3.95;1.27;;;;;;;6.81;77.52;62698.56;4968990;28;20213;-84
2024/01/25 05:58:54;;;;;;;1.40;1.10;;;;;;;6.63;78.42;62680.00;4976481;28;20252;-85
2024/01/25 06:01:22;;;;;;;2.28;1.10;;;;;;;6.61;79.29;62678.44;4974267;28;20237;-84
2024/01/25 06:03:50;;;;;;;1.23;1.13;;;;;;;6.64;80.34;62678.50;4979002;28;20221;-86
2024/01/25 06:06:17;;;;;;;2.97;1.42;;;;;;;6.55;81.08;62671.75;4973378;28;20266;-85
2024/01/25 06:08:46;;;;;;;3.53;1.17;;;;;;;6.51;80.44;62665.63;4974245;28;20243;-85
2024/01/25 06:11:13;;;;;;;3.22;1.15;;;;;;;6.35;81.44;62648.59;4974088;29;20246;-85
2024/01/25 06:13:44;;;;;;;1.95;1.55;;;;;;;6.35;82.26;62649.09;4974857;28;20208;-85
2024/01/25 06:16:22;;;;;;;4.18;1.30;;;;;;;6.31;81.75;62650.06;4975243;28;20220;-85
2024/01/25 06:18:49;;;;;;;2.90;1.40;;;;;;;6.24;81.84;62642.84;4966801;28;20219;-84
2024/01/25 06:21:17;;;;;;;1.38;1.10;;;;;;;6.28;81.29;62644.41;4956061;29;20542;-86
2024/01/25 06:23:45;;;;;;;4.00;1.42;;;;;;;6.32;81.99;62651.06;4959724;28;20249;-86
2024/01/25 06:26:13;;;;;;;3.05;1.50;;;;;;;6.22;81.71;62640.78;4971079;29;20229;-83
2024/01/25 06:28:41;;;;;;;3.05;1.92;;;;;;;6.01;82.10;62616.59;4964248;29;20217;-83
2024/01/25 06:31:08;;;;;;;3.67;1.88;;;;;;;6.04;81.81;62619.19;4972321;28;20228;-86
2024/01/25 06:33:35;;;;;;;6.00;2.13;;;;;;;6.33;81.21;62647.06;4972741;29;20249;-85
2024/01/25 06:36:02;;;;;;;6.53;2.10;;;;;;;6.34;82.12;62647.56;4969658;29;20240;-84
2024/01/25 06:38:29;;;;;;;1.83;1.30;;;;;;;6.40;81.43;62656.28;4966026;29;20208;-81
2024/01/25 06:40:59;;;;;;;3.85;1.48;;;;;;;6.40;80.89;62658.81;4972630;29;20541;-84
2024/01/25 06:43:27;;;;;;;3.15;1.98;;;;;;;6.33;81.51;62647.06;4992259;28;20200;-85
2024/01/25 06:45:54;;;;;;;1.60;1.50;;;;;;;6.30;80.23;62643.97;4963676;28;20273;-87
2024/01/25 06:48:22;;;;;;;6.63;1.48;;;;;;;6.32;79.69;62648.56;4975041;29;20329;-85
2024/01/25 06:50:50;;;;;;;2.70;1.88;;;;;;;6.12;80.42;62624.91;4973459;28;20220;-83
2024/01/25 06:53:17;;;;;;;1.95;1.75;;;;;;;6.34;79.89;62650.63;4972508;29;20219;-85
2024/01/25 06:55:44;;;;;;;1.95;1.33;;;;;;;6.17;79.31;62630.03;4967874;29;20227;-86
2024/01/25 06:58:17;;;;;;;4.28;1.45;;;;;;;6.32;79.76;62645.50;4957396;28;20261;-84
2024/01/25 07:00:46;;;;;;;3.60;1.70;;;;;;;6.22;79.37;62637.72;4972741;29;20232;-87
2024/01/25 07:03:14;;;;;;;3.92;1.58;;;;;;;6.30;79.94;62643.97;4969509;28;20208;-86
2024/01/25 07:05:42;;;;;;;2.35;1.52;;;;;;;6.24;78.53;62639.78;4955375;29;20221;-85
2024/01/25 07:08:13;;;;;;;3.50;1.60;;;;;;;6.09;78.10;62626.84;4974746;28;20228;-83
2024/01/25 07:10:41;;;;;;;4.60;1.90;;;;;;;6.17;78.79;62630.56;4968194;28;20220;-82
2024/01/25 07:13:08;;;;;;;3.45;1.33;;;;;;;6.18;76.70;62634.13;4966297;29;20212;-81
2024/01/25 07:15:36;;;;;;;2.42;1.35;;;;;;;6.39;75.66;62660.31;4961982;28;20241;-86
2024/01/25 07:18:03;;;;;;;6.32;1.35;;;;;;;6.31;75.13;62645.00;4966250;29;20271;-85
2024/01/25 07:20:30;;;;;;;5.65;1.88;;;;;;;6.38;74.14;62654.75;4969956;28;20259;-84
2024/01/25 07:22:57;;;;;;;5.75;1.48;;;;;;;6.38;74.07;62652.22;4971302;29;20231;-86
2024/01/25 07:25:25;;;;;;;1.27;0.85;;;;;;;6.44;73.31;62658.41;4960079;28;20394;-86
2024/01/25 07:27:53;;;;;;;5.20;1.52;;;;;;;6.34;73.52;62650.63;4960416;28;20220;-88
2024/01/25 07:30:20;;;;;;;7.15;1.63;;;;;;;6.45;72.98;62661.44;4970461;28;20232;-86
2024/01/25 07:32:49;;;;;;;3.83;1.48;;;;;;;6.46;72.89;62659.94;4955359;29;20205;-84
2024/01/25 07:35:17;;;;;;;3.95;1.50;;;;;;;6.36;73.48;62649.63;4967178;28;20228;-84
2024/01/25 07:37:44;;;;;;;3.15;1.83;;;;;;;6.12;74.51;62627.41;4970024;28;20260;-86
2024/01/25 07:40:12;;;;;;;3.00;1.02;;;;;;;6.29;73.72;62642.94;4960525;29;20308;-86
2024/01/25 07:42:40;;;;;;;3.22;1.58;;;;;;;6.31;73.98;62647.53;4957958;29;20201;-85
2024/01/25 07:45:07;;;;;;;1.73;1.02;;;;;;;6.33;72.01;62649.06;4961735;28;20613;-83
2024/01/25 07:47:34;;;;;;;1.45;1.30;;;;;;;6.29;73.10;62642.94;4967558;28;20248;-82
2024/01/25 07:50:04;;;;;;;8.00;1.83;;;;;;;6.31;73.21;62645.00;4963599;29;20212;-84
2024/01/25 07:52:31;;;;;;;2.58;1.45;;;;;;;6.31;74.26;62645.00;4963723;29;20201;-84
2024/01/25 07:54:58;;;;;;;2.65;1.45;;;;;;;6.31;73.96;62647.00;4963831;29;20244;-86
2024/01/25 07:57:25;;;;;;;2.33;1.45;;;;;;;6.27;73.88;62645.41;4974968;28;20498;-84
2024/01/25 07:59:53;;;;;;;4.18;2.42;;;;;;;6.28;73.36;62641.88;4956356;29;20229;-85
2024/01/25 08:02:20;;;;;;;2.63;1.58;;;;;;;6.34;73.68;62648.09;4963925;28;20215;-85
2024/01/25 08:04:47;;;;;;;4.53;1.48;;;;;;;6.46;73.02;62657.94;4966139;29;20231;-80
2024/01/25 08:07:16;;;;;;;2.47;2.22;;;;;;;6.51;71.90;62668.13;4961087;28;20222;-85
2024/01/25 08:09:43;;;;;;;3.70;1.55;;;;;;;6.35;70.84;62651.13;4966521;29;20227;-83
2024/01/25 08:12:11;;;;;;;6.00;1.55;;;;;;;6.48;71.52;62662.00;4960546;29;20243;-85
2024/01/25 08:14:38;;;;;;;1.92;1.52;;;;;;;6.43;69.92;62659.91;4962580;28;20237;-84
2024/01/25 08:17:05;;;;;;;2.28;1.45;;;;;;;6.62;68.55;62676.97;4965967;28;20204;-84
2024/01/25 08:19:33;;;;;;;3.70;1.77;;;;;;;6.52;67.45;62663.59;4975530;28;20285;-84
2024/01/25 08:22:01;;;;;;;5.85;1.90;;;;;;;6.69;67.66;62686.72;4970561;28;20272;-82
2024/01/25 08:24:30;;;;;;;3.45;1.98;;;;;;;6.71;67.47;62685.72;4968206;28;20220;-83
2024/01/25 08:26:57;;;;;;;4.30;1.67;;;;;;;6.61;67.32;62673.38;4965302;29;20252;-82
2024/01/25 08:29:24;;;;;;;6.55;2.00;;;;;;;6.50;67.57;62666.59;4968615;29;20241;-83
2024/01/25 08:31:51;;;;;;;8.30;2.15;;;;;;;6.78;65.86;62693.44;4963718;28;20241;-83
2024/01/25 08:34:21;;;;;;;4.55;1.52;;;;;;;6.44;64.16;62655.34;4988811;28;21973;-84
2024/01/25 08:36:47;;;;;;;3.33;1.63;;;;;;;6.69;61.82;62681.66;4972152;28;20236;-83
2024/01/25 08:39:15;;;;;;;5.65;1.92;;;;;;;6.92;62.73;62705.38;4972533;28;20205;-86
2024/01/25 08:41:45;;;;;;;1.95;1.60;;;;;;;6.95;61.59;62713.00;4976701;29;20220;-85
2024/01/25 08:44:12;;;;;;;8.40;1.92;;;;;;;6.76;60.96;62688.88;4971555;29;20227;-86
2024/01/25 08:46:43;;;;;;;2.47;1.25;;;;;;;6.98;60.86;62714.09;4971100;28;20200;-86
2024/01/25 08:49:12;;;;;;;1.35;1.02;;;;;;;7.12;61.15;62727.50;4969334;29;20232;-84
2024/01/25 08:51:39;;;;;;;4.25;1.92;;;;;;;6.92;61.93;62707.38;4970508;29;20205;-87
2024/01/25 08:54:06;;;;;;;3.72;1.67;;;;;;;7.27;60.60;62745.50;4976007;28;20215;-86
2024/01/25 08:56:34;;;;;;;1.65;1.45;;;;;;;7.34;60.47;62758.31;4972173;28;20189;-84
2024/01/25 08:59:03;;;;;;;3.20;1.73;;;;;;;7.20;59.65;62736.25;4971414;28;20510;-87
2024/01/25 09:01:31;;;;;;;4.93;1.48;;;;;;;7.19;60.50;62732.72;4967095;28;20228;-84
2024/01/25 09:04:02;;;;;;;8.13;1.95;;;;;;;7.22;60.69;62743.41;4970671;28;20237;-85
2024/01/25 09:06:29;;;;;;;3.83;2.00;;;;;;;7.21;63.06;62739.84;4961312;29;20273;-84
2024/01/25 09:08:56;;;;;;;2.90;1.75;;;;;;;7.20;63.08;62736.25;4961756;29;20338;-85
2024/01/25 09:11:24;;;;;;;8.50;2.30;;;;;;;7.18;64.48;62736.22;4968167;29;20256;-85
2024/01/25 09:13:51;;;;;;;4.50;2.63;;;;;;;7.07;65.02;62722.88;4976768;29;20216;-85
2024/01/25 09:16:20;;;;;;;3.42;1.80;;;;;;;6.97;65.57;62715.06;4976690;28;20232;-86
2024/01/25 09:18:47;;;;;;;1.50;1.40;;;;;;;7.22;65.12;62743.41;4969959;29;20212;-85
2024/01/25 09:21:14;;;;;;;6.78;2.30;;;;;;;7.26;65.78;62742.47;4974815;28;20260;-85
2024/01/25 09:23:41;;;;;;;4.88;2.60;;;;;;;7.38;65.06;62756.84;4977682;28;20211;-85
2024/01/25 09:26:08;;;;;;;3.05;1.95;;;;;;;7.39;65.52;62762.94;4961661;28;20229;-85
2024/01/25 09:28:36;;;;;;;7.45;2.25;;;;;;;7.41;65.94;62763.00;4968173;28;20228;-86
2024/01/25 09:31:03;;;;;;;3.45;2.13;;;;;;;7.40;65.44;62758.94;4968123;28;20224;-87
2024/01/25 09:33:31;;;;;;;4.90;1.90;;;;;;;7.28;65.66;62746.53;4966609;28;20209;-85
2024/01/25 09:35:59;;;;;;;7.22;2.65;;;;;;;7.31;65.73;62744.56;4974952;28;20236;-85
2024/01/25 09:38:26;;;;;;;7.53;2.45;;;;;;;7.49;66.42;62765.69;4974743;29;20212;-85
2024/01/25 09:40:53;;;;;;;10.18;3.08;;;;;;;7.61;65.85;62783.13;4975257;28;20246;-84
2024/01/25 09:43:22;;;;;;;5.47;1.70;;;;;;;7.46;65.38;62763.09;4966687;29;20618;-84
2024/01/25 09:45:51;;;;;;;4.03;1.90;;;;;;;7.29;66.31;62747.56;4955390;29;20232;-85
2024/01/25 09:48:18;;;;;;;3.60;1.88;;;;;;;7.49;65.85;62768.72;4964649;29;20231;-85
2024/01/25 09:50:47;;;;;;;6.22;2.35;;;;;;;7.57;65.44;62771.91;4974055;28;20295;-86
2024/01/25 09:53:14;;;;;;;7.07;2.53;;;;;;;7.61;64.81;62780.59;4963746;29;20219;-85
2024/01/25 09:55:42;;;;;;;7.88;2.45;;;;;;;7.52;65.55;62773.84;4975581;28;20221;-85
2024/01/25 09:58:11;;;;;;;5.05;2.83;;;;;;;7.57;65.22;62777.00;4974772;29;20213;-85
2024/01/25 10:00:38;;;;;;;4.57;2.70;;;;;;;7.36;66.56;62755.31;4974256;28;20236;-85
2024/01/25 10:03:09;;;;;;;6.80;2.85;;;;;;;7.44;66.30;62760.53;4974413;28;20232;-85
2024/01/25 10:05:36;;;;;;;2.90;2.25;;;;;;;7.28;65.89;62744.53;4973273;28;20220;-83
2024/01/25 10:08:06;;;;;;;3.28;2.05;;;;;;;7.16;66.80;62731.63;4973137;29;20449;-85
2024/01/25 10:10:33;;;;;;;5.97;2.25;;;;;;;7.10;67.95;62725.94;4974850;29;20228;-85
2024/01/25 10:13:00;;;;;;;2.60;2.25;;;;;;;7.20;66.49;62736.25;4983739;28;20226;-84
2024/01/25 10:15:27;;;;;;;5.13;2.20;;;;;;;7.29;66.52;62748.09;4974335;28;20235;-86
2024/01/25 10:17:54;;;;;;;2.45;1.90;;;;;;;7.41;65.95;62757.41;4975252;28;20208;-85
2024/01/25 10:20:24;;;;;;;3.47;1.92;;;;;;;7.58;65.88;62777.50;4964568;29;20251;-86
2024/01/25 10:22:52;;;;;;;4.25;2.47;;;;;;;7.32;66.38;62753.19;4968846;29;20225;-83
2024/01/25 10:25:20;;;;;;;5.13;2.10;;;;;;;7.47;66.89;62771.22;4970970;29;20878;-83
2024/01/25 10:27:48;;;;;;;3.65;1.73;;;;;;;7.47;65.76;62768.69;4964409;29;20204;-84
2024/01/25 10:30:15;;;;;;;2.60;1.27;;;;;;;7.77;64.31;62794.56;4961305;28;20221;-85
2024/01/25 10:32:43;;;;;;;4.00;2.20;;;;;;;7.92;63.50;62813.09;4975318;28;20204;-83
2024/01/25 10:35:10;;;;;;;3.92;2.70;;;;;;;7.93;61.08;62811.09;4963531;28;20301;-84
2024/01/25 10:37:38;;;;;;;3.13;2.58;;;;;;;8.07;61.97;62825.56;4965738;28;20208;-83
2024/01/25 10:40:08;;;;;;;6.53;2.30;;;;;;;8.14;60.80;62832.78;4965033;28;20237;-82
2024/01/25 10:42:36;;;;;;;3.90;1.90;;;;;;;7.77;63.07;62795.09;4966240;28;20212;-83
2024/01/25 10:45:07;;;;;;;10.48;2.40;;;;;;;7.86;62.84;62803.88;4968338;29;20224;-82
2024/01/25 10:47:35;;;;;;;3.55;2.22;;;;;;;8.09;60.77;62830.16;4969893;28;20193;-83
2024/01/25 10:50:02;;;;;;;6.18;2.30;;;;;;;8.13;59.72;62832.25;4961235;29;20224;-84
2024/01/25 10:52:29;;;;;;;3.58;1.67;;;;;;;8.01;60.04;62824.41;4958864;29;20208;-84
2024/01/25 10:54:56;;;;;;;9.57;2.33;;;;;;;8.04;60.65;62822.47;4969806;29;20284;-83
2024/01/25 10:57:27;;;;;;;5.18;1.60;;;;;;;8.16;58.47;62837.88;4969867;28;20259;-84
2024/01/25 10:59:55;;;;;;;2.33;1.85;;;;;;;8.06;57.78;62827.03;4961930;29;20272;-82
2024/01/25 11:02:22;;;;;;;3.40;1.85;;;;;;;8.10;58.03;62828.66;4965094;28;20208;-85
2024/01/25 11:04:55;;;;;;;2.70;1.73;;;;;;;7.83;57.42;62803.84;4966767;29;20212;-85
2024/01/25 11:07:21;;;;;;;4.93;1.80;;;;;;;7.68;57.01;62785.28;4962150;29;20209;-85
2024/01/25 11:09:52;;;;;;;4.15;2.70;;;;;;;7.89;56.86;62812.56;4973351;28;20247;-85
2024/01/25 11:12:19;;;;;;;4.47;2.25;;;;;;;7.99;56.87;62819.81;4975407;28;20216;-82
2024/01/25 11:14:46;;;;;;;2.72;1.45;;;;;;;8.15;56.96;62836.88;4960675;28;20229;-84
2024/01/25 11:17:19;;;;;;;7.07;2.03;;;;;;;8.18;56.23;62836.91;4961021;29;20218;-84
2024/01/25 11:19:47;;;;;;;2.72;2.00;;;;;;;7.66;57.81;62783.72;4972655;28;20252;-83
2024/01/25 11:22:14;;;;;;;5.55;1.58;;;;;;;7.97;57.10;62813.19;4976824;29;20296;-82
2024/01/25 11:24:42;;;;;;;3.72;1.83;;;;;;;8.04;56.09;62825.50;4973682;28;20224;-85
2024/01/25 11:27:12;;;;;;;5.43;1.92;;;;;;;8.05;56.92;62829.09;4980102;28;20296;-84
2024/01/25 11:29:39;;;;;;;3.65;1.73;;;;;;;8.11;56.56;62832.22;4973894;28;20221;-84
2024/01/25 11:32:06;;;;;;;5.55;1.90;;;;;;;8.04;56.13;62822.47;4972875;28;20221;-84
2024/01/25 11:34:36;;;;;;;6.78;2.75;;;;;;;7.85;56.10;62805.38;4978578;28;20235;-84
2024/01/25 11:37:03;;;;;;;2.58;1.67;;;;;;;7.73;56.70;62793.00;4972545;29;20204;-83
2024/01/25 11:39:30;;;;;;;3.00;1.73;;;;;;;7.64;57.37;62781.69;4970875;28;20259;-83
2024/01/25 11:41:57;;;;;;;3.63;1.88;;;;;;;7.46;57.21;62765.09;4973221;29;20443;-81